Time;durP1;ratioP1;P1;durP2;ratioP2;P2;SDS_P1;SDS_P2;PMS_P1;PMS_P2;Temp;Humidity;BMP_temperature;BMP_pressure;BME280_temperature;BME280_humidity;BME280_pressure;Samples;Min_cycle;Max_cycle;Signal;HPM_P1;HPM_P2
2022/05/03 00:00:22;;;;;;;7.32;3.15;;;6.60;99.90;;;;;;4925906;29;20062;-93
2022/05/03 00:02:55;;;;;;;8.05;3.95;;;6.60;99.90;;;;;;4941523;29;20043;-94
2022/05/03 00:05:29;;;;;;;9.30;4.70;;;6.60;99.90;;;;;;4941521;29;20047;-93
2022/05/03 00:08:19;;;;;;;9.15;4.47;;;6.60;99.90;;;;;;4941107;28;20051;-93
2022/05/03 00:11:31;;;;;;;8.32;4.80;;;6.50;99.90;;;;;;4921220;29;20047;-92
2022/05/03 00:14:05;;;;;;;8.98;4.32;;;6.50;99.90;;;;;;4846608;29;20053;-92
2022/05/03 00:16:35;;;;;;;9.93;5.40;;;6.50;99.90;;;;;;4877559;29;20052;-92
2022/05/03 00:19:05;;;;;;;9.25;4.88;;;6.50;99.90;;;;;;4861663;29;20061;-92
2022/05/03 00:21:32;;;;;;;8.77;4.63;;;6.50;99.90;;;;;;4859879;29;20053;-94
2022/05/03 00:23:58;;;;;;;10.88;6.18;;;6.50;99.90;;;;;;4843522;29;20091;-93
2022/05/03 00:26:24;;;;;;;10.30;4.32;;;6.50;99.90;;;;;;4843898;29;20045;-93
2022/05/03 00:28:51;;;;;;;11.13;5.68;;;6.50;99.90;;;;;;4844632;29;20475;-93
2022/05/03 00:31:18;;;;;;;8.75;4.45;;;6.40;99.90;;;;;;4843251;29;20148;-93
2022/05/03 00:33:45;;;;;;;10.60;5.78;;;6.30;99.90;;;;;;4858378;29;20602;-92
2022/05/03 00:36:10;;;;;;;11.70;5.35;;;6.40;99.90;;;;;;4843420;29;20092;-92
2022/05/03 00:38:36;;;;;;;11.27;5.90;;;6.40;99.90;;;;;;4861864;29;20162;-93
2022/05/03 00:41:07;;;;;;;11.43;7.38;;;6.40;99.90;;;;;;4862016;29;20061;-92
2022/05/03 00:45:03;;;;;;;10.32;5.00;;;6.40;99.90;;;;;;4862633;29;20091;-93
2022/05/03 00:47:09;;;;;;;10.45;4.97;;;6.40;99.90;;;;;;4866529;29;20075;-94
2022/05/03 00:49:48;;;;;;;;;;;6.20;99.90;;;;;;4942206;29;20078;-94
2022/05/03 00:52:28;;;;;;;9.52;4.75;;;6.20;99.90;;;;;;4943998;29;19923;-93
2022/05/03 00:55:09;;;;;;;11.43;5.32;;;6.20;99.90;;;;;;4978445;28;20059;-92
2022/05/03 00:58:13;;;;;;;10.98;5.30;;;6.10;99.90;;;;;;4935608;29;20107;-93
2022/05/03 01:00:52;;;;;;;10.10;5.43;;;6.10;99.90;;;;;;4940394;29;20066;-93
2022/05/03 01:03:29;;;;;;;11.48;5.18;;;6.00;99.90;;;;;;4922398;29;20051;-93
2022/05/03 01:06:01;;;;;;;11.40;5.40;;;6.00;99.90;;;;;;4939505;29;20047;-93
2022/05/03 01:08:50;;;;;;;11.98;6.30;;;5.90;99.90;;;;;;4955433;29;20031;-93
2022/05/03 01:11:19;;;;;;;12.10;5.72;;;6.00;99.90;;;;;;4940648;29;20055;-92
2022/05/03 01:13:52;;;;;;;9.90;5.38;;;6.00;99.90;;;;;;4963189;29;20059;-92
2022/05/03 01:16:43;;;;;;;11.55;5.65;;;6.00;99.90;;;;;;4951724;29;20416;-91
2022/05/03 01:19:39;;;;;;;11.50;5.77;;;6.00;99.90;;;;;;4932798;29;20055;-93
2022/05/03 01:22:14;;;;;;;10.95;5.85;;;5.90;99.90;;;;;;4974206;29;20110;-93
2022/05/03 01:25:05;;;;;;;11.98;6.78;;;5.90;99.90;;;;;;4938133;29;20408;-93
2022/05/03 01:27:47;;;;;;;11.15;6.20;;;5.80;99.90;;;;;;4936611;29;20139;-92
2022/05/03 01:30:14;;;;;;;10.57;5.72;;;5.80;99.90;;;;;;4954122;29;20043;-94
2022/05/03 01:32:46;;;;;;;10.18;6.13;;;5.70;99.90;;;;;;4920172;29;20043;-93
2022/05/03 01:35:16;;;;;;;12.45;6.93;;;5.70;99.90;;;;;;4936983;29;20087;-92
2022/05/03 01:38:05;;;;;;;12.48;6.30;;;5.70;99.90;;;;;;4953664;29;20102;-92
2022/05/03 01:40:46;;;;;;;13.45;7.45;;;5.70;99.90;;;;;;4936938;29;20047;-93
2022/05/03 01:43:20;;;;;;;10.03;6.03;;;5.70;99.90;;;;;;4953865;29;20047;-93
2022/05/03 01:46:07;;;;;;;9.15;4.70;;;5.70;99.90;;;;;;4953082;29;20050;-94
2022/05/03 01:52:06;;;;;;;11.38;6.57;;;5.60;99.90;;;;;;4935971;29;20087;-93
2022/05/03 01:54:56;;;;;;;9.80;5.82;;;5.60;99.90;;;;;;4936047;29;20043;-93
2022/05/03 01:57:46;;;;;;;10.88;5.53;;;5.60;99.90;;;;;;4928003;29;20047;-92
2022/05/03 02:00:12;;;;;;;12.10;5.78;;;5.60;99.90;;;;;;4918088;29;20044;-92
2022/05/03 02:03:07;;;;;;;11.63;6.78;;;5.50;99.90;;;;;;4920180;29;20098;-92
2022/05/03 02:06:03;;;;;;;10.88;6.25;;;5.50;99.90;;;;;;4920095;29;20488;-92
2022/05/03 02:08:51;;;;;;;10.75;6.32;;;5.50;99.90;;;;;;4952787;29;20470;-92
2022/05/03 02:11:54;;;;;;;13.63;5.43;;;5.40;99.90;;;;;;4934969;29;20130;-93
2022/05/03 02:14:45;;;;;;;11.43;7.05;;;5.40;99.90;;;;;;4935686;29;20047;-94
2022/05/03 02:17:31;;;;;;;12.38;6.57;;;5.40;99.90;;;;;;4935559;29;20118;-93
2022/05/03 02:20:16;;;;;;;11.05;6.68;;;5.30;99.90;;;;;;4934706;29;20067;-92
2022/05/03 02:23:00;;;;;;;10.43;5.97;;;5.40;99.90;;;;;;4935474;29;20047;-92
2022/05/03 02:25:39;;;;;;;12.52;6.00;;;5.30;99.90;;;;;;4935273;29;20134;-92
2022/05/03 02:28:25;;;;;;;12.32;6.55;;;5.30;99.90;;;;;;4919188;29;20042;-92
2022/05/03 02:30:52;;;;;;;12.57;6.85;;;5.30;99.90;;;;;;4918764;29;20050;-92
2022/05/03 02:33:26;;;;;;;9.95;5.55;;;5.20;99.90;;;;;;4934961;29;20436;-91
2022/05/03 02:35:55;;;;;;;11.45;6.45;;;5.20;99.90;;;;;;4927674;29;20182;-94
2022/05/03 02:38:36;;;;;;;14.48;6.88;;;5.10;99.90;;;;;;4935434;29;20552;-92
2022/05/03 02:41:03;;;;;;;14.90;6.78;;;5.10;99.90;;;;;;4916808;29;20504;-92
2022/05/03 02:43:30;;;;;;;12.65;6.47;;;5.10;99.90;;;;;;4934555;29;20462;-93
2022/05/03 02:46:21;;;;;;;10.38;6.57;;;5.10;99.90;;;;;;4934845;29;20049;-92
2022/05/03 02:49:02;;;;;;;11.38;6.15;;;5.10;99.90;;;;;;4899513;29;20055;-91
2022/05/03 02:51:39;;;;;;;11.75;6.43;;;5.00;99.90;;;;;;4934416;29;20377;-93
2022/05/03 02:54:31;;;;;;;10.25;5.38;;;5.00;99.90;;;;;;4951967;29;20048;-92
2022/05/03 02:57:31;;;;;;;10.48;5.30;;;5.00;99.90;;;;;;4932740;29;20051;-91
2022/05/03 03:03:17;;;;;;;11.52;6.18;;;5.00;99.90;;;;;;4934598;29;20055;-92
2022/05/03 03:05:48;;;;;;;12.73;5.97;;;5.00;99.90;;;;;;4951391;29;20050;-91
2022/05/03 03:08:19;;;;;;;11.38;6.57;;;5.00;99.90;;;;;;4934497;29;20039;-92
2022/05/03 03:10:57;;;;;;;12.63;6.67;;;5.00;99.90;;;;;;4934333;29;20043;-91
2022/05/03 03:13:38;;;;;;;13.00;6.38;;;4.90;99.90;;;;;;4950756;29;20393;-92
2022/05/03 03:16:09;;;;;;;11.70;6.97;;;5.00;99.90;;;;;;4946004;29;20054;-91
2022/05/03 03:18:37;;;;;;;13.82;7.85;;;4.90;99.90;;;;;;4966350;29;20404;-93
2022/05/03 03:21:07;;;;;;;14.25;7.53;;;4.90;99.90;;;;;;4918613;29;20110;-92
2022/05/03 03:23:36;;;;;;;11.90;6.32;;;4.90;99.90;;;;;;4932895;29;20047;-91
2022/05/03 03:26:02;;;;;;;13.32;7.78;;;4.80;99.90;;;;;;4930791;29;20119;-91
2022/05/03 03:28:29;;;;;;;12.48;7.88;;;4.80;99.90;;;;;;4916141;29;20184;-91
2022/05/03 03:30:58;;;;;;;13.85;7.78;;;4.80;99.90;;;;;;4918655;29;20058;-92
2022/05/03 03:33:24;;;;;;;12.57;7.30;;;4.80;99.90;;;;;;4951729;29;20047;-92
2022/05/03 03:35:52;;;;;;;13.27;7.45;;;4.70;99.90;;;;;;4918882;29;20090;-91
2022/05/03 03:38:27;;;;;;;12.55;7.88;;;4.70;99.90;;;;;;4919403;29;20126;-92
2022/05/03 03:40:53;;;;;;;12.50;6.85;;;4.70;99.90;;;;;;4933424;29;20091;-91
2022/05/03 03:43:19;;;;;;;11.45;6.72;;;4.60;99.90;;;;;;4922297;29;20040;-92
2022/05/03 03:45:44;;;;;;;12.82;7.13;;;4.60;99.90;;;;;;4949735;29;20389;-92
2022/05/03 03:48:10;;;;;;;13.15;7.55;;;4.60;99.90;;;;;;4998227;23;20104;-96
2022/05/03 03:50:37;;;;;;;13.18;7.00;;;4.60;99.90;;;;;;4948654;29;20090;-96
2022/05/03 03:53:04;;;;;;;14.85;7.60;;;4.60;99.90;;;;;;4966243;28;20039;-96
2022/05/03 03:55:31;;;;;;;11.85;7.10;;;4.70;99.90;;;;;;4980920;28;20031;-95
2022/05/03 03:58:00;;;;;;;11.73;7.00;;;4.60;99.90;;;;;;4963559;28;20090;-96
2022/05/03 04:00:25;;;;;;;12.98;7.25;;;4.50;99.90;;;;;;4962198;29;20055;-95
2022/05/03 04:02:52;;;;;;;12.70;6.85;;;4.50;99.90;;;;;;4970261;29;20035;-96
2022/05/03 04:05:26;;;;;;;13.57;7.47;;;4.50;99.90;;;;;;4942517;29;20051;-93
2022/05/03 04:07:52;;;;;;;12.30;7.72;;;4.40;99.90;;;;;;4939053;29;20041;-94
2022/05/03 04:10:18;;;;;;;12.35;6.70;;;4.40;99.90;;;;;;4916054;29;20493;-92
2022/05/03 04:12:44;;;;;;;13.65;7.32;;;4.40;99.90;;;;;;4939053;29;20051;-95
2022/05/03 04:15:10;;;;;;;12.45;6.95;;;4.50;99.90;;;;;;4956863;29;20075;-94
2022/05/03 04:17:36;;;;;;;13.05;7.47;;;4.60;99.90;;;;;;4938465;29;20082;-94
2022/05/03 04:20:02;;;;;;;10.50;5.88;;;4.70;99.90;;;;;;4938711;29;20078;-94
2022/05/03 04:22:32;;;;;;;13.90;6.70;;;4.70;99.90;;;;;;4938185;29;20102;-93
2022/05/03 04:24:59;;;;;;;12.07;7.65;;;4.80;99.90;;;;;;4922001;29;20508;-93
2022/05/03 04:27:26;;;;;;;13.55;8.05;;;4.80;99.90;;;;;;4937466;29;20429;-93
2022/05/03 04:29:53;;;;;;;15.13;8.57;;;4.90;99.90;;;;;;4936254;29;20050;-93
2022/05/03 04:32:19;;;;;;;13.52;9.07;;;5.00;99.90;;;;;;4935921;29;20086;-93
2022/05/03 04:34:45;;;;;;;14.70;9.57;;;5.10;99.90;;;;;;4944114;29;20167;-95
2022/05/03 04:37:12;;;;;;;15.85;10.10;;;5.10;99.90;;;;;;4942660;29;20501;-95
2022/05/03 04:39:38;;;;;;;13.88;8.60;;;5.30;99.90;;;;;;4957126;29;20051;-94
2022/05/03 04:42:04;;;;;;;14.07;8.90;;;5.30;99.90;;;;;;4955894;29;20403;-93
2022/05/03 04:44:29;;;;;;;15.68;9.13;;;5.30;99.90;;;;;;4922246;29;20066;-90
2022/05/03 04:46:55;;;;;;;14.75;9.43;;;5.40;99.90;;;;;;4935843;29;20047;-90
2022/05/03 04:49:21;;;;;;;15.65;9.68;;;5.40;99.90;;;;;;4920168;29;20059;-89
2022/05/03 04:51:47;;;;;;;15.23;9.35;;;5.50;99.90;;;;;;4936673;29;20128;-91
2022/05/03 04:54:12;;;;;;;14.60;10.70;;;5.60;99.90;;;;;;4954587;28;20067;-92
2022/05/03 04:56:39;;;;;;;15.30;10.25;;;5.70;99.90;;;;;;4922403;29;20063;-95
2022/05/03 04:59:05;;;;;;;15.80;9.80;;;5.80;99.90;;;;;;4938829;29;20070;-93
2022/05/03 05:01:30;;;;;;;17.52;11.35;;;5.80;99.90;;;;;;4958047;29;20039;-95
2022/05/03 05:03:56;;;;;;;15.18;10.20;;;5.90;99.90;;;;;;4957891;29;20435;-91
2022/05/03 05:06:22;;;;;;;14.65;9.20;;;6.00;99.90;;;;;;4948894;29;20078;-91
2022/05/03 05:08:47;;;;;;;15.82;10.63;;;6.00;99.90;;;;;;4924592;29;20050;-91
2022/05/03 05:11:13;;;;;;;17.48;10.93;;;6.00;99.90;;;;;;4938897;29;20046;-90
2022/05/03 05:13:39;;;;;;;16.33;11.65;;;6.10;99.90;;;;;;4938331;29;20115;-94
2022/05/03 05:16:06;;;;;;;16.13;11.75;;;6.20;99.90;;;;;;4925986;29;20048;-92
2022/05/03 05:18:32;;;;;;;19.98;12.00;;;6.20;99.90;;;;;;4937583;29;20035;-93
2022/05/03 05:20:57;;;;;;;16.25;11.13;;;6.30;99.90;;;;;;4952651;29;20443;-91
2022/05/03 05:23:23;;;;;;;16.75;11.15;;;6.40;99.90;;;;;;4952859;29;20035;-93
2022/05/03 05:25:51;;;;;;;15.07;11.52;;;6.50;99.90;;;;;;4936006;29;20634;-89
2022/05/03 05:28:17;;;;;;;18.02;15.90;;;6.60;99.90;;;;;;4935261;29;20050;-94
2022/05/03 05:30:43;;;;;;;17.60;13.18;;;6.70;99.90;;;;;;4927122;29;20046;-89
2022/05/03 05:33:09;;;;;;;17.58;12.63;;;6.80;99.90;;;;;;4902882;29;20047;-89
2022/05/03 05:35:35;;;;;;;17.27;12.50;;;7.00;99.90;;;;;;4918857;29;20465;-88
2022/05/03 05:38:01;;;;;;;19.67;17.75;;;7.10;99.90;;;;;;4902881;29;20046;-89
2022/05/03 05:40:26;;;;;;;18.13;16.33;;;7.30;99.90;;;;;;4919078;29;20047;-91
2022/05/03 05:42:52;;;;;;;19.52;14.50;;;7.40;99.90;;;;;;4953149;29;20050;-91
2022/05/03 05:45:18;;;;;;;18.52;14.32;;;7.40;99.90;;;;;;4908074;29;20088;-91
2022/05/03 05:47:44;;;;;;;21.95;19.65;;;7.60;99.90;;;;;;4949169;29;20043;-93
2022/05/03 05:50:10;;;;;;;20.55;15.00;;;7.70;99.90;;;;;;4934745;29;20059;-91
2022/05/03 05:55:20;;;;;;;24.02;18.08;;;7.80;99.90;;;;;;4952555;29;20054;-90
2022/05/03 05:57:46;;;;;;;20.33;16.13;;;7.90;99.90;;;;;;4933835;29;20035;-90
2022/05/03 06:00:12;;;;;;;23.80;21.30;;;8.00;99.90;;;;;;4920482;29;20484;-89
2022/05/03 06:02:39;;;;;;;23.73;21.23;;;8.10;99.90;;;;;;4933941;29;20090;-91
2022/05/03 06:05:05;;;;;;;26.00;23.25;;;8.30;99.90;;;;;;4918943;29;20047;-90
2022/05/03 06:07:31;;;;;;;25.20;22.58;;;8.40;99.90;;;;;;4918141;29;20047;-90
2022/05/03 06:09:57;;;;;;;25.25;22.58;;;8.50;99.90;;;;;;4950186;29;20094;-92
2022/05/03 06:12:22;;;;;;;25.27;22.73;;;8.50;99.90;;;;;;4916288;29;20454;-90
2022/05/03 06:14:48;;;;;;;27.27;24.40;;;8.70;99.90;;;;;;4915115;29;20052;-90
2022/05/03 06:17:13;;;;;;;27.88;24.30;;;8.70;99.90;;;;;;4931467;29;20043;-91
2022/05/03 06:19:39;;;;;;;27.42;24.52;;;8.80;99.90;;;;;;4934779;29;20205;-91
2022/05/03 06:22:05;;;;;;;26.98;24.10;;;8.90;99.90;;;;;;4918418;29;20047;-91
2022/05/03 06:24:31;;;;;;;25.63;22.92;;;9.00;99.90;;;;;;4915457;29;20032;-92
2022/05/03 06:26:58;;;;;;;26.55;23.67;;;9.10;99.90;;;;;;4935027;29;20079;-92
2022/05/03 06:29:24;;;;;;;25.80;22.38;;;9.20;99.90;;;;;;4935155;29;20086;-91
2022/05/03 06:31:50;;;;;;;26.08;23.30;;;9.30;99.90;;;;;;4935818;29;20039;-93
2022/05/03 06:34:16;;;;;;;26.40;23.48;;;9.40;99.90;;;;;;4931279;29;20073;-92
2022/05/03 06:36:42;;;;;;;24.60;22.00;;;9.50;99.90;;;;;;4913097;29;20076;-91
2022/05/03 06:39:08;;;;;;;27.23;24.33;;;9.60;99.90;;;;;;4944012;29;20043;-91
2022/05/03 06:41:33;;;;;;;31.25;27.83;;;9.80;99.90;;;;;;4918782;29;20404;-89
2022/05/03 06:44:00;;;;;;;31.35;27.95;;;9.90;99.90;;;;;;4920515;29;20055;-89
2022/05/03 06:46:26;;;;;;;31.92;27.60;;;10.00;99.90;;;;;;4925535;29;20066;-88
2022/05/03 06:48:52;;;;;;;33.35;28.20;;;10.00;99.90;;;;;;4919971;29;20221;-88
2022/05/03 06:51:18;;;;;;;31.25;27.85;;;10.10;99.90;;;;;;4930762;29;20043;-88
2022/05/03 06:53:44;;;;;;;31.13;27.67;;;10.10;99.90;;;;;;4932890;29;20047;-89
2022/05/03 06:56:09;;;;;;;32.45;28.90;;;10.20;99.90;;;;;;4932586;29;20050;-91
2022/05/03 06:58:35;;;;;;;32.08;28.42;;;10.20;99.90;;;;;;4950993;29;20058;-89
2022/05/03 07:01:08;;;;;;;33.83;28.90;;;10.30;99.90;;;;;;4921899;29;20036;-88
2022/05/03 07:03:35;;;;;;;35.20;29.63;;;10.30;99.90;;;;;;4932841;29;20051;-87
2022/05/03 07:06:00;;;;;;;41.65;32.78;;;10.40;99.90;;;;;;4933123;29;20090;-85
2022/05/03 07:08:26;;;;;;;37.17;30.60;;;10.40;99.90;;;;;;4934823;29;20138;-86
2022/05/03 07:10:51;;;;;;;43.17;33.42;;;10.50;99.90;;;;;;4932531;29;20501;-90
2022/05/03 07:13:23;;;;;;;49.55;36.05;;;10.50;99.90;;;;;;4933674;29;20079;-87
2022/05/03 07:15:50;;;;;;;54.38;39.17;;;10.50;99.90;;;;;;4933472;29;20051;-87
2022/05/03 07:23:44;;;;;;;48.65;35.95;;;10.40;99.90;;;;;;4932343;29;20456;-88
2022/05/03 07:26:10;;;;;;;49.95;35.25;;;10.40;99.90;;;;;;4934566;29;20087;-86
2022/05/03 07:28:36;;;;;;;46.25;36.30;;;10.40;99.90;;;;;;4917602;29;20040;-89
2022/05/03 07:31:01;;;;;;;49.78;36.30;;;10.30;99.90;;;;;;4934910;29;20044;-88
2022/05/03 07:33:27;;;;;;;54.58;37.53;;;10.30;99.90;;;;;;4900595;29;20048;-91
2022/05/03 07:35:53;;;;;;;50.58;36.83;;;10.40;99.90;;;;;;4918117;29;20050;-91
2022/05/03 07:38:18;;;;;;;76.65;41.88;;;10.30;99.90;;;;;;4919742;29;20134;-89
2022/05/03 07:40:44;;;;;;;70.95;41.58;;;10.40;99.90;;;;;;4927453;29;20341;-91
2022/05/03 07:43:09;;;;;;;72.20;43.88;;;10.40;99.90;;;;;;4926870;29;20067;-90
2022/05/03 07:45:35;;;;;;;59.72;39.13;;;10.40;99.90;;;;;;4937370;29;20066;-89
2022/05/03 07:48:01;;;;;;;69.22;41.75;;;10.40;99.90;;;;;;4936355;29;20039;-89
2022/05/03 07:50:26;;;;;;;58.33;38.20;;;10.30;99.90;;;;;;4933406;29;20385;-88
2022/05/03 07:52:52;;;;;;;59.60;38.75;;;10.30;99.90;;;;;;4920327;29;20085;-89
2022/05/03 07:55:18;;;;;;;60.05;39.88;;;10.30;99.90;;;;;;4952484;29;20054;-94
2022/05/03 07:57:43;;;;;;;56.42;38.30;;;10.40;99.90;;;;;;4921255;29;20048;-90
2022/05/03 08:00:10;;;;;;;56.20;38.05;;;10.30;99.90;;;;;;4937390;29;20051;-92
2022/05/03 08:02:35;;;;;;;55.15;38.88;;;10.30;99.90;;;;;;4905164;29;20122;-90
2022/05/03 08:05:01;;;;;;;56.80;38.40;;;10.30;99.90;;;;;;4925833;29;20130;-93
2022/05/03 08:07:27;;;;;;;49.67;35.10;;;10.30;99.90;;;;;;4937032;29;20173;-92
2022/05/03 08:09:53;;;;;;;62.20;38.70;;;10.30;99.90;;;;;;4921031;29;20059;-92
2022/05/03 08:12:19;;;;;;;46.28;32.72;;;10.30;99.90;;;;;;4926151;29;20397;-93
2022/05/03 08:14:46;;;;;;;44.40;32.83;;;10.30;99.90;;;;;;4927120;29;20047;-87
2022/05/03 08:17:12;;;;;;;48.95;34.95;;;10.30;99.90;;;;;;4943803;29;20055;-87
2022/05/03 08:19:37;;;;;;;43.75;32.97;;;10.30;99.90;;;;;;4935623;29;20047;-87
2022/05/03 08:22:03;;;;;;;41.80;32.35;;;10.30;99.90;;;;;;4914406;29;20061;-86
2022/05/03 08:24:29;;;;;;;45.42;31.38;;;10.40;99.90;;;;;;4920704;29;21405;-87
2022/05/03 08:26:55;;;;;;;44.83;30.83;;;10.40;99.90;;;;;;4919839;29;20055;-88
2022/05/03 08:29:20;;;;;;;40.50;29.98;;;10.50;99.90;;;;;;4936174;29;20227;-88
2022/05/03 08:31:47;;;;;;;36.33;28.20;;;10.50;99.90;;;;;;4927331;29;20060;-88
2022/05/03 08:34:13;;;;;;;36.83;28.30;;;10.50;99.90;;;;;;4900209;29;20039;-87
2022/05/03 08:36:38;;;;;;;31.85;24.85;;;10.50;99.90;;;;;;4918579;29;20058;-88
2022/05/03 08:42:01;;;;;;;30.05;24.48;;;10.60;99.90;;;;;;4940210;29;20047;-87
2022/05/03 08:44:28;;;;;;;32.03;22.80;;;10.60;99.90;;;;;;4923152;29;20040;-86
2022/05/03 08:46:58;;;;;;;25.83;19.70;;;10.70;99.90;;;;;;4938378;29;20043;-87
2022/05/03 08:49:26;;;;;;;24.05;18.00;;;10.90;99.90;;;;;;4902720;29;20397;-87
2022/05/03 08:51:53;;;;;;;21.10;15.70;;;10.90;99.90;;;;;;4903064;29;21181;-90
2022/05/03 08:54:20;;;;;;;17.90;12.13;;;11.10;99.90;;;;;;4922409;29;20048;-88
2022/05/03 08:56:47;;;;;;;15.38;11.05;;;11.10;99.90;;;;;;4902762;29;20155;-88
2022/05/03 08:59:13;;;;;;;16.50;11.50;;;11.20;99.90;;;;;;4924341;29;20046;-86
2022/05/03 09:01:39;;;;;;;16.85;11.65;;;11.20;99.90;;;;;;4925101;29;20390;-90
2022/05/03 09:04:06;;;;;;;15.80;10.70;;;11.20;99.90;;;;;;4904437;29;20048;-87
2022/05/03 09:06:48;;;;;;;16.33;10.45;;;11.20;99.90;;;;;;4917732;29;20039;-87
2022/05/03 09:09:15;;;;;;;14.77;9.73;;;11.20;99.90;;;;;;4899774;29;20051;-87
2022/05/03 09:11:47;;;;;;;16.30;8.82;;;11.20;99.90;;;;;;4915613;29;20044;-87
2022/05/03 09:14:13;;;;;;;;;;;11.30;99.90;;;;;;4914966;29;20175;-88
2022/05/03 09:16:49;;;;;;;14.35;8.52;;;11.30;99.90;;;;;;4915537;29;19927;-88
2022/05/03 09:19:24;;;;;;;11.98;7.53;;;11.40;99.90;;;;;;4924179;29;20304;-88
2022/05/03 09:24:53;;;;;;;15.10;7.80;;;11.60;99.90;;;;;;4920007;29;20044;-89
2022/05/03 09:27:21;;;;;;;14.68;8.00;;;11.70;99.90;;;;;;4917376;29;20060;-88
2022/05/03 09:30:04;;;;;;;13.13;8.30;;;11.70;99.90;;;;;;4918733;29;20044;-88
2022/05/03 09:32:44;;;;;;;16.05;8.75;;;11.70;99.90;;;;;;4920975;29;20083;-87
2022/05/03 09:35:35;;;;;;;18.63;9.55;;;11.60;99.90;;;;;;4920558;29;20461;-87
2022/05/03 09:38:03;;;;;;;16.23;8.60;;;11.50;99.90;;;;;;4915127;29;20059;-89
2022/05/03 09:40:35;;;;;;;17.70;8.77;;;11.40;99.90;;;;;;4923209;29;20090;-88
2022/05/03 09:43:00;;;;;;;19.67;9.40;;;11.40;99.90;;;;;;4924313;29;20131;-87
2022/05/03 09:45:26;;;;;;;19.35;9.93;;;11.40;99.90;;;;;;4922566;29;20119;-89
2022/05/03 09:47:53;;;;;;;15.57;8.90;;;11.30;99.90;;;;;;4918180;29;20059;-87
2022/05/03 09:50:39;;;;;;;18.85;9.75;;;11.20;99.90;;;;;;4903098;29;20052;-87
2022/05/03 09:53:26;;;;;;;17.33;9.77;;;11.10;99.90;;;;;;4899185;29;20059;-87
2022/05/03 09:55:53;;;;;;;18.58;9.27;;;11.00;99.90;;;;;;4898811;29;20159;-88
2022/05/03 09:58:19;;;;;;;19.10;8.95;;;11.00;99.90;;;;;;4892785;29;20052;-86
2022/05/03 10:00:47;;;;;;;18.48;9.25;;;11.10;99.90;;;;;;4907063;29;20063;-88
2022/05/03 10:03:13;;;;;;;19.63;9.85;;;11.10;99.90;;;;;;4899424;29;20047;-90
2022/05/03 10:05:42;;;;;;;19.65;9.25;;;11.20;99.90;;;;;;4882338;29;20385;-86
2022/05/03 10:08:11;;;;;;;18.70;10.05;;;11.30;99.90;;;;;;4904078;29;20055;-88
2022/05/03 10:10:40;;;;;;;20.52;9.73;;;11.40;99.90;;;;;;4902103;29;20047;-86
2022/05/03 10:13:05;;;;;;;18.15;8.93;;;11.40;99.90;;;;;;4904012;29;20044;-87
2022/05/03 10:21:16;;;;;;;18.60;8.60;;;11.60;99.90;;;;;;4901098;29;20055;-87
2022/05/03 10:24:01;;;;;;;16.77;7.97;;;11.70;99.90;;;;;;4901441;29;20083;-92
2022/05/03 10:27:16;;;;;;;19.45;7.95;;;11.80;99.90;;;;;;4892436;29;20044;-92
2022/05/03 10:30:14;;;;;;;18.80;7.55;;;11.80;99.90;;;;;;4875550;29;20143;-91
2022/05/03 10:32:39;;;;;;;17.50;7.47;;;11.90;99.90;;;;;;4909626;29;20044;-92
2022/05/03 10:35:32;;;;;;;18.27;7.93;;;12.00;99.90;;;;;;4909116;29;20191;-94
2022/05/03 10:37:57;;;;;;;18.73;7.22;;;12.00;99.90;;;;;;4908567;29;20052;-88
2022/05/03 10:40:38;;;;;;;17.67;7.68;;;12.00;99.90;;;;;;4903788;29;20489;-90
2022/05/03 10:43:13;;;;;;;17.00;7.45;;;12.10;99.90;;;;;;4895300;29;20062;-90
2022/05/03 10:45:53;;;;;;;17.27;7.43;;;12.10;99.90;;;;;;4900759;29;20052;-91
2022/05/03 10:48:30;;;;;;;16.98;7.75;;;12.10;99.90;;;;;;4914857;29;20056;-88
2022/05/03 10:51:01;;;;;;;18.60;7.93;;;12.10;99.90;;;;;;4931493;29;20122;-89
2022/05/03 10:53:32;;;;;;;;;;;12.20;99.90;;;;;;4912495;29;20142;-92
2022/05/03 10:56:05;;;;;;;15.40;7.37;;;12.20;99.90;;;;;;4938260;29;19911;-94
2022/05/03 10:58:36;;;;;;;16.98;8.13;;;12.30;99.90;;;;;;4928517;29;20048;-95
2022/05/03 11:01:14;;;;;;;13.25;6.90;;;12.30;99.90;;;;;;4926305;29;20035;-95
2022/05/03 11:04:01;;;;;;;12.57;7.10;;;12.30;99.90;;;;;;4935809;29;20054;-95
2022/05/03 11:06:26;;;;;;;14.90;6.32;;;12.40;99.90;;;;;;4936639;29;20071;-95
2022/05/03 11:08:59;;;;;;;16.40;6.72;;;12.40;99.90;;;;;;4934727;29;20056;-95
2022/05/03 11:11:42;;;;;;;14.10;5.40;;;12.50;99.90;;;;;;4941883;29;20048;-96
2022/05/03 11:14:18;;;;;;;12.75;5.53;;;12.50;99.90;;;;;;4920524;29;20370;-94
2022/05/03 11:16:45;;;;;;;13.02;6.22;;;12.50;99.90;;;;;;4938210;29;20051;-93
2022/05/03 11:19:19;;;;;;;14.20;5.47;;;12.40;99.90;;;;;;4998976;23;20125;-95
2022/05/03 11:21:46;;;;;;;14.70;5.78;;;12.60;99.90;;;;;;4968372;29;20042;-95
2022/05/03 11:24:20;;;;;;;11.90;4.80;;;12.50;99.90;;;;;;4941302;29;20107;-96
2022/05/03 11:26:47;;;;;;;14.13;5.57;;;12.60;99.90;;;;;;4919920;29;20044;-96
2022/05/03 11:29:14;;;;;;;12.68;5.35;;;12.70;99.90;;;;;;4925153;29;20048;-94
2022/05/03 11:31:47;;;;;;;13.38;5.50;;;12.70;99.90;;;;;;4914582;29;20039;-93
2022/05/03 11:34:13;;;;;;;13.95;5.13;;;12.80;99.90;;;;;;4944046;29;20047;-95
2022/05/03 11:36:42;;;;;;;16.27;4.90;;;12.80;99.90;;;;;;4910190;29;20089;-94
2022/05/03 11:39:09;;;;;;;12.18;5.30;;;12.90;99.90;;;;;;4958232;29;20055;-95
2022/05/03 11:41:36;;;;;;;14.60;6.07;;;12.90;99.90;;;;;;4953217;29;20182;-95
2022/05/03 11:44:03;;;;;;;12.35;5.20;;;13.10;99.90;;;;;;4938492;29;20119;-92
2022/05/03 11:46:29;;;;;;;14.50;5.20;;;13.10;99.90;;;;;;4939689;29;20123;-95
2022/05/03 11:48:59;;;;;;;13.98;5.78;;;13.20;99.90;;;;;;4954261;29;20050;-96
2022/05/03 11:57:15;;;;;;;14.20;5.20;;;13.40;99.90;;;;;;4932924;29;20115;-93
2022/05/03 11:59:42;;;;;;;10.70;5.40;;;13.50;99.90;;;;;;4960602;29;20117;-96
2022/05/03 12:02:22;;;;;;;11.00;4.93;;;13.70;99.90;;;;;;4946269;28;20043;-94
2022/05/03 12:05:20;;;;;;;11.38;4.65;;;13.80;99.90;;;;;;4947082;29;20484;-96
2022/05/03 12:07:57;;;;;;;12.32;5.78;;;13.80;99.90;;;;;;4950849;29;20047;-92
2022/05/03 12:10:37;;;;;;;11.90;4.65;;;13.80;99.90;;;;;;4942592;29;20047;-90
2022/05/03 12:13:27;;;;;;;10.32;4.82;;;13.70;99.90;;;;;;4929911;29;20042;-94
2022/05/03 12:15:59;;;;;;;13.32;4.60;;;13.80;99.90;;;;;;4944669;29;20051;-92
2022/05/03 12:18:28;;;;;;;11.10;4.78;;;13.90;99.90;;;;;;4967818;29;20087;-95
2022/05/03 12:20:59;;;;;;;10.60;4.45;;;14.00;99.90;;;;;;4951338;29;20051;-94
2022/05/03 12:23:24;;;;;;;11.50;4.55;;;14.00;99.90;;;;;;4978891;28;20034;-96
2022/05/03 12:25:52;;;;;;;11.35;3.92;;;14.10;99.90;;;;;;4973876;29;20047;-96
2022/05/03 12:28:18;;;;;;;11.77;4.40;;;14.00;99.90;;;;;;4941686;29;20028;-94
2022/05/03 12:30:53;;;;;;;9.65;3.78;;;14.10;99.90;;;;;;4956307;28;20034;-93
2022/05/03 12:33:19;;;;;;;10.95;4.15;;;14.10;99.90;;;;;;4942606;29;20074;-94
2022/05/03 12:35:47;;;;;;;12.20;4.32;;;14.20;99.90;;;;;;4946733;29;20051;-94
2022/05/03 12:38:16;;;;;;;11.43;4.47;;;14.40;99.90;;;;;;4948518;29;20040;-94
2022/05/03 12:40:47;;;;;;;9.35;3.58;;;14.30;99.90;;;;;;4951015;29;20051;-94
2022/05/03 12:43:24;;;;;;;10.27;4.10;;;14.40;99.90;;;;;;4962165;28;20024;-94
2022/05/03 12:46:03;;;;;;;11.48;4.28;;;14.40;99.90;;;;;;4977801;28;20043;-93
2022/05/03 12:48:31;;;;;;;10.55;3.78;;;14.40;99.90;;;;;;4949435;29;20047;-95
2022/05/03 12:50:58;;;;;;;9.13;3.50;;;14.50;99.90;;;;;;4973761;28;20053;-93
2022/05/03 12:53:31;;;;;;;11.43;3.85;;;14.50;99.90;;;;;;4935821;29;20039;-96
2022/05/03 12:58:21;;;;;;;9.70;3.70;;;14.70;99.90;;;;;;4947073;29;20050;-96
2022/05/03 12:58:44;;;;;;;11.63;3.65;;;14.70;99.90;;;;;;4960750;29;20070;-96
2022/05/03 13:01:11;;;;;;;9.82;3.40;;;14.70;99.90;;;;;;4942949;29;20079;-93
2022/05/03 13:03:37;;;;;;;9.07;3.13;;;14.60;99.90;;;;;;4961948;29;20047;-93
2022/05/03 13:06:03;;;;;;;9.23;3.15;;;14.60;99.90;;;;;;4963353;29;20050;-94
2022/05/03 13:08:29;;;;;;;11.20;3.65;;;14.80;99.90;;;;;;4953132;29;20048;-94
2022/05/03 13:10:54;;;;;;;10.82;3.35;;;14.90;99.90;;;;;;4944236;29;20058;-93
2022/05/03 13:13:20;;;;;;;11.35;3.55;;;14.90;99.90;;;;;;4936492;29;20082;-93
2022/05/03 13:15:45;;;;;;;7.88;2.88;;;15.00;99.90;;;;;;4958246;28;20513;-93
2022/05/03 13:18:11;;;;;;;9.57;2.92;;;15.00;99.90;;;;;;4923836;29;20067;-94
2022/05/03 13:20:38;;;;;;;8.77;3.05;;;14.90;99.90;;;;;;4942087;29;20051;-94
2022/05/03 13:23:04;;;;;;;7.47;2.80;;;14.90;99.90;;;;;;4959925;29;20043;-89
2022/05/03 13:25:30;;;;;;;8.48;2.85;;;14.90;99.90;;;;;;4960305;29;20055;-93
2022/05/03 13:27:56;;;;;;;8.98;3.40;;;15.00;99.90;;;;;;4958241;29;20043;-90
2022/05/03 13:30:23;;;;;;;11.07;2.97;;;15.00;99.90;;;;;;4958895;29;20092;-92
2022/05/03 13:32:49;;;;;;;10.02;2.80;;;15.10;99.90;;;;;;4940963;29;20039;-95